Augusta Regional At Bush Field
KAGS : now visible

Airfield :











YOU CAN JOIN US ON...

 
LOGIN :

Register | Disclaimer

   EN    FR    IT 

 









Legend :    VFR   Marginal VFR   IFR   Intensive IFR   Very Intensive IFR
Visi :
Ceiling :
>= 8 km
>= 3000ft
5 to 8 km
1000 to 3000 ft
1500m to 5 km
500 to 1000 ft
800 to 1500m
200 to 500 ft
< 800m
< 200 ft
Symbols :   Thunderstorms  Fog  Heavy snow  Heavy precipitations  Wind > 20 kt






- Airport Elevation : 144 ft
- IATA code : AGS


KAGS - Augusta Regional At Bush Field

CURRENT METAR :
  • 030953Z AUTO 00000KT 2 1/2SM BR CLR 22/21 A2996 RMK AO2 SLP142 T02220211

EXPIRED METARs :
  • 030920Z AUTO 00000KT 3SM BR CLR 23/22 A2996 RMK AO2 T02280217
  • 030914Z AUTO 00000KT 1 3/4SM BR CLR 22/22 A2996 RMK AO2 VIS 1V5 T02220217
  • 030853Z AUTO 00000KT 10SM CLR 23/22 A2996 RMK AO2 SLP144 T02330217 50000
  • 030833Z AUTO 00000KT 3SM BR FEW015 23/22 A2997 RMK AO2 T02280222
  • 030804Z AUTO 00000KT 3SM BR CLR 23/22 A2997 RMK AO2 T02280222
  • 030753Z AUTO 00000KT 1 1/4SM BR CLR 23/22 A2997 RMK AO2 SLP146 T02280222
  • 030653Z AUTO 00000KT 10SM CLR 23/22 A2997 RMK AO2 SLP146 T02330222

TAF KAGS
Valid from the 03 at 09:00 until the 04 at 06:00 UTC


030913Z 0309/0406 00000KT 6SM BR SKC
TEMPO 0309/0311 1SM BR FEW015
FM031100 08004KT P6SM BKN030
FM031500 09007KT P6SM -SHRA BKN035
FM032100 07010KT P6SM BKN050
KZTL FIR / North America



MET'MAP, your aeronautical weather chart ! - Copyright ORBIFLY December 2007 - Disclaimer

ORBIFLY MET'MAP TEAM :

Programming & Development : Alexandra Zaïnal
Concept & original design : Baudouin d'Aumeries
Assistance for programming : Marc-Olivier Méhu
Technical & hardware support : Manuel Goepfert

Contact : metmap@orbifly.com




SOURCES & CREDITS :

   NOAA       Earth
Advisory